createdAt,value
2023-09-14T00:01:18.597Z,85.73
2023-09-14T00:03:47.374Z,85.92
2023-09-14T00:06:16.138Z,86.10
2023-09-14T00:08:44.891Z,86.13
2023-09-14T00:11:14.310Z,86.14
2023-09-14T00:13:42.801Z,86.24
2023-09-14T00:16:11.144Z,86.33
2023-09-14T00:18:39.481Z,86.47
2023-09-14T00:21:07.829Z,86.52
2023-09-14T00:23:36.007Z,86.69
2023-09-14T00:26:04.385Z,86.72
2023-09-14T00:28:32.677Z,86.83
2023-09-14T00:31:01.104Z,86.87
2023-09-14T00:33:29.440Z,86.98
2023-09-14T00:35:57.992Z,86.99
2023-09-14T00:38:26.886Z,87.02
2023-09-14T00:40:55.770Z,87.15
2023-09-14T00:43:24.064Z,87.16
2023-09-14T00:45:52.474Z,87.28
2023-09-14T00:48:21.110Z,87.18
2023-09-14T00:50:50.203Z,87.33
2023-09-14T00:53:19.193Z,87.37
2023-09-14T00:55:47.781Z,87.43
2023-09-14T00:58:17.663Z,87.51
2023-09-14T01:00:47.406Z,87.53
2023-09-14T01:03:17.292Z,87.61
2023-09-14T01:05:47.021Z,87.70
2023-09-14T01:08:15.620Z,87.79
2023-09-14T01:10:45.617Z,87.89
2023-09-14T01:13:23.277Z,88.01
2023-09-14T01:15:55.634Z,88.03
2023-09-14T01:18:47.420Z,88.09
2023-09-14T01:21:48.287Z,88.28
2023-09-14T01:24:31.589Z,88.31
2023-09-14T01:27:00.258Z,88.39
2023-09-14T01:29:28.528Z,88.36
2023-09-14T01:31:57.009Z,88.40
2023-09-14T01:34:25.369Z,88.50
2023-09-14T01:37:01.888Z,88.52
2023-09-14T01:39:30.673Z,88.55
2023-09-14T01:41:59.529Z,88.67
2023-09-14T01:44:28.788Z,88.72
2023-09-14T01:46:57.957Z,88.87
2023-09-14T01:49:26.416Z,89.04
2023-09-14T01:51:55.572Z,89.14
2023-09-14T01:54:24.082Z,89.17
2023-09-14T01:56:52.456Z,89.28
2023-09-14T01:59:20.834Z,89.49
2023-09-14T02:01:49.390Z,89.52
2023-09-14T02:04:18.305Z,89.53
2023-09-14T02:06:46.655Z,89.74
2023-09-14T02:09:14.953Z,89.86
2023-09-14T02:11:45.209Z,90.02
2023-09-14T02:14:13.778Z,89.96
2023-09-14T02:16:42.129Z,90.10
2023-09-14T02:19:11.348Z,90.15
2023-09-14T02:21:39.617Z,90.30
2023-09-14T02:24:08.187Z,90.38
2023-09-14T02:26:36.772Z,90.40
2023-09-14T02:29:05.025Z,90.50
2023-09-14T02:31:33.456Z,90.75
2023-09-14T02:34:01.851Z,90.88
2023-09-14T02:36:30.604Z,91.15
2023-09-14T02:38:59.268Z,91.31
2023-09-14T02:41:27.543Z,91.57
2023-09-14T02:43:55.825Z,91.29
2023-09-14T02:46:24.383Z,91.24
2023-09-14T02:48:53.431Z,91.51
2023-09-14T02:51:21.774Z,91.75
2023-09-14T02:53:50.251Z,91.99
2023-09-14T02:56:18.521Z,92.48
2023-09-14T02:58:47.234Z,92.41
2023-09-14T03:01:15.910Z,92.28
2023-09-14T03:03:44.768Z,92.46
2023-09-14T03:06:13.782Z,92.51
2023-09-14T03:08:42.256Z,92.68
2023-09-14T03:11:10.728Z,92.92
2023-09-14T03:13:39.214Z,92.90
2023-09-14T03:16:07.793Z,93.10
2023-09-14T03:18:36.359Z,93.43
2023-09-14T03:21:04.753Z,93.64
2023-09-14T03:23:33.540Z,93.66
2023-09-14T03:26:01.825Z,93.82
2023-09-14T03:28:30.103Z,93.97
2023-09-14T03:30:58.393Z,93.93
2023-09-14T03:33:26.952Z,94.07
2023-09-14T03:35:55.220Z,94.19
2023-09-14T03:38:23.498Z,94.19
2023-09-14T03:40:51.770Z,94.29
2023-09-14T03:43:20.045Z,94.20
2023-09-14T03:45:48.550Z,94.09
2023-09-14T03:48:17.208Z,94.14
2023-09-14T03:50:45.486Z,94.20
2023-09-14T03:53:13.859Z,94.58
2023-09-14T03:55:42.855Z,94.69
2023-09-14T03:58:11.369Z,94.42
2023-09-14T04:00:40.028Z,94.65
2023-09-14T04:03:09.547Z,94.87
2023-09-14T04:05:38.266Z,94.97
2023-09-14T04:08:08.507Z,95.17
2023-09-14T04:10:41.109Z,95.20
2023-09-14T04:13:34.034Z,95.45
2023-09-14T04:16:07.734Z,95.69
2023-09-14T04:18:40.196Z,95.93
2023-09-14T04:21:09.332Z,96.30
2023-09-14T04:23:37.710Z,96.35
2023-09-14T04:26:08.337Z,96.60
2023-09-14T04:28:37.746Z,96.74
2023-09-14T04:31:09.900Z,97.02
2023-09-14T04:33:38.556Z,96.81
2023-09-14T04:36:07.061Z,96.82
2023-09-14T04:38:36.988Z,96.71
2023-09-14T04:41:06.140Z,96.99
2023-09-14T04:43:35.480Z,97.20
2023-09-14T04:46:06.272Z,97.01
2023-09-14T04:48:35.189Z,97.33
2023-09-14T04:51:03.678Z,97.49
2023-09-14T04:53:32.051Z,97.76
2023-09-14T04:56:00.650Z,98.04
2023-09-14T04:58:29.212Z,98.03
2023-09-14T05:00:58.483Z,98.22
2023-09-14T05:03:27.118Z,98.32
2023-09-14T05:05:56.486Z,98.45
2023-09-14T05:08:26.416Z,98.66
2023-09-14T05:10:57.655Z,98.58
2023-09-14T05:13:26.441Z,98.73
2023-09-14T05:15:55.166Z,98.97
2023-09-14T05:18:28.428Z,99.13
2023-09-14T05:20:57.004Z,99.09
2023-09-14T05:23:25.478Z,98.98
2023-09-14T05:25:53.866Z,98.88
2023-09-14T05:28:22.291Z,99.08
2023-09-14T05:30:51.702Z,99.09
2023-09-14T05:33:20.421Z,99.17
2023-09-14T05:35:52.120Z,99.23
2023-09-14T05:38:21.084Z,99.38
2023-09-14T05:40:51.698Z,99.33
2023-09-14T05:43:20.225Z,99.36
2023-09-14T05:45:48.916Z,99.41
2023-09-14T05:48:18.059Z,99.49
2023-09-14T05:50:46.539Z,99.36
2023-09-14T05:53:17.475Z,99.29
2023-09-14T05:55:46.160Z,99.52
2023-09-14T05:58:14.799Z,99.60
2023-09-14T06:00:43.139Z,99.46
2023-09-14T06:03:11.547Z,99.45
2023-09-14T06:05:41.410Z,99.38
2023-09-14T06:08:09.786Z,99.17
2023-09-14T06:10:38.271Z,99.17
2023-09-14T06:13:06.800Z,99.12
2023-09-14T06:15:35.133Z,98.91
2023-09-14T06:18:03.466Z,98.26
2023-09-14T06:20:31.884Z,98.49
2023-09-14T06:23:00.168Z,98.31
2023-09-14T06:25:28.537Z,98.25
2023-09-14T06:27:56.821Z,98.12
2023-09-14T06:30:25.282Z,98.18
2023-09-14T06:32:53.679Z,97.96
2023-09-14T06:35:22.050Z,98.02
2023-09-14T06:37:50.327Z,97.95
2023-09-14T06:40:18.894Z,97.91
2023-09-14T06:42:47.312Z,97.62
2023-09-14T06:45:15.753Z,97.39
2023-09-14T06:47:44.044Z,98.04
2023-09-14T06:50:13.944Z,98.02
2023-09-14T06:52:42.175Z,97.82
2023-09-14T06:55:10.726Z,98.00
2023-09-14T06:57:39.100Z,98.04
2023-09-14T07:00:21.991Z,97.74
2023-09-14T07:02:50.508Z,97.75
2023-09-14T07:05:19.052Z,97.71
2023-09-14T07:07:47.332Z,97.78
2023-09-14T07:10:15.772Z,97.41
2023-09-14T07:12:44.217Z,97.43
2023-09-14T07:15:12.568Z,97.51
2023-09-14T07:17:40.847Z,97.44
2023-09-14T07:20:09.929Z,97.60
2023-09-14T07:22:38.931Z,96.95
2023-09-14T07:25:10.156Z,96.92
2023-09-14T07:27:38.753Z,96.57
2023-09-14T07:30:08.051Z,96.47
2023-09-14T07:32:36.457Z,96.46
2023-09-14T07:35:05.629Z,96.47
2023-09-14T07:37:33.899Z,96.56
2023-09-14T07:40:02.474Z,96.64
2023-09-14T07:42:31.057Z,96.63
2023-09-14T07:44:59.467Z,96.30
2023-09-14T07:47:31.238Z,96.12
2023-09-14T07:50:00.695Z,95.93
2023-09-14T07:52:30.315Z,95.96
2023-09-14T07:54:58.725Z,96.01
2023-09-14T07:57:27.162Z,95.60
2023-09-14T07:59:55.337Z,95.21
2023-09-14T08:02:23.871Z,94.64
2023-09-14T08:04:52.615Z,94.27
2023-09-14T08:07:21.139Z,93.97
2023-09-14T08:09:49.469Z,93.72
2023-09-14T08:12:17.741Z,93.61
2023-09-14T08:14:46.012Z,93.51
2023-09-14T08:17:14.384Z,93.17
2023-09-14T08:19:42.762Z,93.33
2023-09-14T08:22:11.795Z,93.31
2023-09-14T08:24:40.132Z,93.25
2023-09-14T08:27:08.410Z,92.89
2023-09-14T08:29:37.399Z,92.82
2023-09-14T08:32:06.005Z,92.29
2023-09-14T08:34:34.671Z,91.66
2023-09-14T08:37:04.146Z,91.02
2023-09-14T08:39:32.450Z,90.85
2023-09-14T08:42:00.715Z,90.62
2023-09-14T08:44:35.236Z,91.08
2023-09-14T08:47:03.868Z,90.99
2023-09-14T08:49:35.292Z,90.79
2023-09-14T08:52:04.166Z,91.00
2023-09-14T08:54:32.562Z,90.68
2023-09-14T08:57:04.597Z,90.42
2023-09-14T08:59:33.690Z,90.58
2023-09-14T09:02:02.542Z,89.58
2023-09-14T09:04:31.050Z,89.11
2023-09-14T09:07:00.209Z,88.56
2023-09-14T09:09:30.075Z,87.89
2023-09-14T09:11:58.401Z,87.17
2023-09-14T09:14:31.681Z,86.77
2023-09-14T09:17:00.658Z,86.83
2023-09-14T09:19:29.858Z,86.90
2023-09-14T09:21:58.532Z,86.73
2023-09-14T09:24:27.798Z,86.68
2023-09-14T09:26:57.483Z,86.51
2023-09-14T09:29:25.886Z,86.17
2023-09-14T09:31:55.283Z,86.06
2023-09-14T09:34:30.079Z,85.10
2023-09-14T09:36:59.518Z,83.48
2023-09-14T09:39:28.306Z,82.61
2023-09-14T09:41:56.681Z,81.96
2023-09-14T09:44:29.344Z,81.91
2023-09-14T09:46:58.891Z,81.88
2023-09-14T09:49:30.390Z,81.90
2023-09-14T09:51:59.474Z,81.84
2023-09-14T09:54:29.241Z,81.92
2023-09-14T09:56:58.111Z,82.22
2023-09-14T09:59:27.684Z,82.30
2023-09-14T10:01:57.078Z,81.75
2023-09-14T10:04:30.257Z,80.13
2023-09-14T10:07:00.755Z,79.20
2023-09-14T10:09:35.805Z,78.89
2023-09-14T10:12:05.140Z,78.62
2023-09-14T10:14:33.971Z,78.16
2023-09-14T10:17:07.606Z,77.68
2023-09-14T10:19:37.023Z,77.22
2023-09-14T10:22:05.669Z,76.39
2023-09-14T10:24:34.351Z,75.75
2023-09-14T10:27:04.094Z,74.65
2023-09-14T10:29:32.204Z,73.87
2023-09-14T10:32:01.173Z,73.18
2023-09-14T10:34:30.945Z,73.16
2023-09-14T10:37:01.075Z,73.17
2023-09-14T10:39:29.794Z,72.90
2023-09-14T10:41:58.604Z,72.30
2023-09-14T10:44:29.269Z,71.70
2023-09-14T10:47:03.387Z,70.92
2023-09-14T10:49:36.747Z,70.42
2023-09-14T10:52:05.554Z,70.38
2023-09-14T10:54:34.216Z,70.14
2023-09-14T10:57:13.637Z,70.27
2023-09-14T10:59:53.240Z,70.70
2023-09-14T11:02:51.714Z,70.80
2023-09-14T11:05:25.799Z,70.85
2023-09-14T11:08:02.516Z,70.17
2023-09-14T11:10:31.613Z,69.14
2023-09-14T11:13:25.257Z,68.31
2023-09-14T11:16:07.747Z,67.83
2023-09-14T11:18:47.428Z,67.38
2023-09-14T11:21:38.168Z,66.66
2023-09-14T11:24:09.510Z,65.50
2023-09-14T11:26:47.011Z,65.12
2023-09-14T11:29:19.927Z,64.56
2023-09-14T11:32:11.628Z,64.07
2023-09-14T11:34:45.013Z,63.98
2023-09-14T11:37:19.714Z,63.55
2023-09-14T11:39:58.669Z,62.89
2023-09-14T11:42:33.334Z,62.41
2023-09-14T11:45:11.708Z,61.70
2023-09-14T11:47:44.674Z,61.65
2023-09-14T11:50:15.395Z,61.95
2023-09-14T11:52:43.982Z,60.96
2023-09-14T11:55:16.522Z,60.02
2023-09-14T11:57:44.911Z,59.43
2023-09-14T12:00:13.946Z,59.41
2023-09-14T12:02:42.638Z,59.82
2023-09-14T12:05:11.204Z,59.82
2023-09-14T12:07:39.471Z,58.86
2023-09-14T12:10:21.654Z,58.16
2023-09-14T12:12:49.975Z,57.13
2023-09-14T12:15:22.567Z,56.69
2023-09-14T12:17:52.524Z,55.86
2023-09-14T12:20:21.391Z,56.06
2023-09-14T12:22:49.714Z,56.39
2023-09-14T12:25:20.942Z,56.97
2023-09-14T12:27:49.662Z,57.72
2023-09-14T12:30:18.115Z,58.28
2023-09-14T12:32:46.712Z,58.48
2023-09-14T12:35:17.834Z,59.17
2023-09-14T12:37:46.314Z,59.52
2023-09-14T12:40:15.224Z,59.91
2023-09-14T12:42:44.807Z,59.98
2023-09-14T12:45:16.617Z,60.30
2023-09-14T12:47:49.008Z,60.30
2023-09-14T12:50:17.432Z,60.39
2023-09-14T12:52:51.056Z,60.57
2023-09-14T12:55:19.826Z,61.18
2023-09-14T12:57:49.318Z,61.29
2023-09-14T13:00:19.449Z,61.55
2023-09-14T13:02:49.883Z,61.64
2023-09-14T13:05:22.498Z,62.10
2023-09-14T13:08:01.248Z,62.31
2023-09-14T13:10:30.762Z,62.36
2023-09-14T13:13:05.987Z,62.38
2023-09-14T13:15:36.045Z,62.56
2023-09-14T13:18:11.744Z,62.88
2023-09-14T13:20:52.951Z,63.30
2023-09-14T13:23:21.569Z,62.77
2023-09-14T13:25:50.000Z,61.06
2023-09-14T13:28:18.367Z,59.43
2023-09-14T13:30:47.333Z,58.85
2023-09-14T13:33:15.665Z,57.78
2023-09-14T13:35:44.027Z,56.45
2023-09-14T13:38:12.285Z,55.08
2023-09-14T13:40:40.976Z,53.95
2023-09-14T13:43:10.478Z,53.34
2023-09-14T13:45:39.181Z,53.19
2023-09-14T13:48:07.877Z,53.29
2023-09-14T13:50:36.229Z,53.77
2023-09-14T13:53:06.855Z,54.08
2023-09-14T13:55:35.330Z,54.42
2023-09-14T13:58:04.061Z,54.75
2023-09-14T14:00:34.817Z,54.92
2023-09-14T14:03:08.667Z,54.80
2023-09-14T14:05:41.268Z,54.44
2023-09-14T14:08:09.805Z,54.09
2023-09-14T14:10:38.658Z,53.90
2023-09-14T14:13:07.003Z,53.46
2023-09-14T14:15:35.634Z,53.54
2023-09-14T14:18:04.608Z,53.22
2023-09-14T14:20:33.037Z,52.98
2023-09-14T14:23:01.406Z,52.38
2023-09-14T14:25:29.682Z,52.17
2023-09-14T14:27:58.128Z,51.99
2023-09-14T14:30:26.484Z,51.67
2023-09-14T14:32:56.717Z,51.51
2023-09-14T14:35:25.353Z,51.25
2023-09-14T14:37:53.926Z,51.14
2023-09-14T14:40:44.567Z,50.55
2023-09-14T14:43:10.784Z,50.65
2023-09-14T14:45:39.449Z,50.54
2023-09-14T14:48:08.113Z,51.14
2023-09-14T14:50:36.285Z,51.54
2023-09-14T14:53:04.781Z,52.00
2023-09-14T14:55:33.242Z,52.32
2023-09-14T14:58:01.701Z,52.14
2023-09-14T15:00:30.132Z,51.97
2023-09-14T15:02:58.543Z,50.32
2023-09-14T15:05:27.014Z,49.66
2023-09-14T15:07:55.342Z,49.07
2023-09-14T15:10:23.610Z,48.18
2023-09-14T15:12:54.001Z,47.82
2023-09-14T15:15:22.321Z,47.72
2023-09-14T15:17:50.935Z,48.25
2023-09-14T15:20:19.266Z,48.54
2023-09-14T15:22:48.975Z,48.06
2023-09-14T15:25:17.254Z,47.63
2023-09-14T15:27:45.987Z,47.58
2023-09-14T15:30:14.923Z,48.06
2023-09-14T15:32:44.724Z,48.70
2023-09-14T15:35:14.556Z,49.12
2023-09-14T15:37:43.232Z,49.64
2023-09-14T15:40:12.745Z,50.05
2023-09-14T15:42:43.297Z,50.54
2023-09-14T15:45:11.745Z,50.64
2023-09-14T15:47:40.141Z,51.05
2023-09-14T15:50:09.625Z,51.24
2023-09-14T15:52:40.457Z,51.43
2023-09-14T15:55:13.918Z,51.77
2023-09-14T15:57:46.038Z,51.69
2023-09-14T16:00:15.079Z,52.18
2023-09-14T16:02:43.526Z,52.92
2023-09-14T16:05:11.829Z,54.03
2023-09-14T16:07:44.146Z,54.84
2023-09-14T16:10:13.029Z,55.65
2023-09-14T16:12:42.172Z,56.42
2023-09-14T16:15:11.127Z,57.15
2023-09-14T16:17:39.606Z,57.81
2023-09-14T16:20:09.829Z,58.42
2023-09-14T16:22:38.327Z,59.16
2023-09-14T16:25:09.867Z,59.66
2023-09-14T16:27:38.780Z,60.44
2023-09-14T16:30:07.882Z,60.92
2023-09-14T16:32:36.266Z,61.56
2023-09-14T16:35:05.615Z,62.18
2023-09-14T16:37:34.397Z,62.76
2023-09-14T16:40:05.075Z,63.19
2023-09-14T16:42:33.564Z,63.92
2023-09-14T16:45:02.305Z,64.68
2023-09-14T16:47:30.565Z,65.14
2023-09-14T16:49:58.751Z,65.64
2023-09-14T16:52:27.017Z,66.22
2023-09-14T16:54:55.928Z,66.62
2023-09-14T16:57:26.647Z,67.14
2023-09-14T16:59:55.075Z,67.54
2023-09-14T17:02:25.260Z,67.99
2023-09-14T17:04:53.638Z,68.32
2023-09-14T17:07:23.316Z,68.83
2023-09-14T17:09:52.338Z,69.13
2023-09-14T17:12:20.890Z,69.38
2023-09-14T17:14:49.167Z,69.71
2023-09-14T17:17:17.448Z,70.09
2023-09-14T17:19:45.816Z,70.40
2023-09-14T17:22:14.239Z,70.65
2023-09-14T17:24:42.641Z,70.99
2023-09-14T17:27:11.462Z,71.27
2023-09-14T17:29:40.039Z,71.63
2023-09-14T17:32:09.351Z,71.91
2023-09-14T17:34:38.127Z,72.25
2023-09-14T17:37:06.444Z,72.53
2023-09-14T17:39:37.986Z,72.67
2023-09-14T17:42:07.138Z,72.98
2023-09-14T17:44:36.653Z,73.23
2023-09-14T17:47:04.947Z,73.57
2023-09-14T17:49:33.307Z,73.77
2023-09-14T17:52:01.744Z,74.08
2023-09-14T17:54:29.974Z,74.23
2023-09-14T17:56:58.662Z,74.52
2023-09-14T17:59:28.142Z,74.80
2023-09-14T18:01:56.476Z,75.09
2023-09-14T18:04:25.474Z,75.17
2023-09-14T18:06:53.793Z,75.33
2023-09-14T18:09:22.582Z,75.54
2023-09-14T18:11:50.848Z,75.66
2023-09-14T18:14:19.124Z,75.69
2023-09-14T18:16:47.432Z,75.96
2023-09-14T18:19:18.328Z,76.30
2023-09-14T18:21:46.868Z,76.38
2023-09-14T18:24:15.194Z,76.67
2023-09-14T18:26:43.569Z,77.01
2023-09-14T18:29:14.507Z,77.05
2023-09-14T18:31:42.891Z,77.20
2023-09-14T18:34:11.303Z,77.34
2023-09-14T18:36:39.855Z,77.47
2023-09-14T18:39:10.166Z,77.53
2023-09-14T18:41:38.441Z,77.49
2023-09-14T18:44:07.332Z,77.83
2023-09-14T18:46:35.637Z,77.76
2023-09-14T18:49:06.327Z,77.78
2023-09-14T18:51:34.732Z,77.79
2023-09-14T18:54:03.206Z,77.59
2023-09-14T18:56:31.471Z,77.60
2023-09-14T19:01:30.933Z,77.83
2023-09-14T19:03:59.769Z,77.88
2023-09-14T19:06:28.351Z,77.82
2023-09-14T19:08:57.452Z,77.88
2023-09-14T19:11:25.726Z,78.00
2023-09-14T19:13:54.001Z,77.97
2023-09-14T19:16:22.376Z,78.24
2023-09-14T19:18:51.152Z,78.28
2023-09-14T19:21:19.645Z,78.33
2023-09-14T19:23:48.032Z,78.40
2023-09-14T19:26:16.405Z,78.48
2023-09-14T19:28:45.535Z,78.50
2023-09-14T19:31:15.465Z,78.55
2023-09-14T19:33:43.943Z,78.44
2023-09-14T19:36:12.468Z,78.70
2023-09-14T19:38:44.964Z,78.83
2023-09-14T19:41:13.524Z,79.10
2023-09-14T19:43:41.800Z,79.27
2023-09-14T19:46:10.033Z,79.50
2023-09-14T19:48:44.969Z,79.53
2023-09-14T19:51:13.422Z,79.61
2023-09-14T19:53:41.761Z,79.70
2023-09-14T19:56:10.346Z,79.64
2023-09-14T19:58:39.062Z,79.71
2023-09-14T20:01:08.193Z,79.84
2023-09-14T20:03:36.795Z,80.05
2023-09-14T20:06:05.597Z,80.26
2023-09-14T20:08:34.033Z,80.33
2023-09-14T20:11:04.754Z,80.30
2023-09-14T20:13:36.141Z,80.19
2023-09-14T20:16:04.966Z,80.37
2023-09-14T20:18:34.394Z,80.53
2023-09-14T20:21:02.613Z,80.58
2023-09-14T20:23:31.194Z,80.70
2023-09-14T20:25:59.374Z,80.98
2023-09-14T20:28:28.057Z,81.14
2023-09-14T20:30:56.371Z,81.46
2023-09-14T20:33:25.245Z,81.84
2023-09-14T20:35:53.588Z,82.18
2023-09-14T20:38:21.867Z,82.17
2023-09-14T20:40:50.253Z,82.05
2023-09-14T20:43:21.294Z,81.99
2023-09-14T20:45:51.027Z,81.95
2023-09-14T20:48:19.404Z,82.01
2023-09-14T20:50:47.855Z,82.38
2023-09-14T20:53:17.558Z,82.57
2023-09-14T20:55:45.932Z,82.68
2023-09-14T20:58:14.463Z,82.62
2023-09-14T21:00:45.808Z,82.70
2023-09-14T21:03:14.350Z,82.92
2023-09-14T21:05:47.429Z,82.88
2023-09-14T21:08:16.623Z,83.04
2023-09-14T21:10:45.012Z,83.28
2023-09-14T21:13:15.379Z,83.25
2023-09-14T21:15:43.764Z,83.44
2023-09-14T21:18:12.385Z,83.51
2023-09-14T21:20:40.667Z,83.88
2023-09-14T21:23:08.944Z,84.17
2023-09-14T21:25:37.214Z,84.23
2023-09-14T21:28:06.552Z,84.46
2023-09-14T21:30:35.100Z,84.54
2023-09-14T21:33:04.331Z,84.71
2023-09-14T21:35:32.773Z,84.99
2023-09-14T21:38:03.295Z,84.82
2023-09-14T21:40:33.991Z,84.92
2023-09-14T21:43:02.452Z,84.89
2023-09-14T21:45:30.783Z,85.00
2023-09-14T21:47:59.124Z,85.07
2023-09-14T21:50:27.544Z,85.06
2023-09-14T21:52:56.531Z,85.34
2023-09-14T21:55:24.813Z,85.54
2023-09-14T21:57:53.136Z,85.64
2023-09-14T22:00:25.845Z,85.59
2023-09-14T22:02:54.180Z,85.67
2023-09-14T22:05:22.716Z,85.69
2023-09-14T22:07:50.993Z,85.73
2023-09-14T22:10:19.781Z,85.54
2023-09-14T22:12:49.022Z,85.44
2023-09-14T22:15:17.968Z,85.77
2023-09-14T22:17:46.148Z,86.04
2023-09-14T22:20:21.581Z,86.17
2023-09-14T22:22:52.416Z,86.54
2023-09-14T22:25:20.734Z,86.48
2023-09-14T22:27:49.796Z,86.68
2023-09-14T22:30:18.980Z,86.63
2023-09-14T22:32:49.163Z,86.73
2023-09-14T22:35:19.942Z,87.07
2023-09-14T22:37:50.961Z,87.04
2023-09-14T22:40:20.814Z,87.19
2023-09-14T22:42:49.726Z,87.07
2023-09-14T22:45:18.358Z,87.23
2023-09-14T22:47:46.748Z,87.24
2023-09-14T22:50:15.123Z,87.25
2023-09-14T22:52:43.911Z,87.38
2023-09-14T22:55:17.076Z,87.46
2023-09-14T22:57:46.065Z,87.60
2023-09-14T23:00:15.059Z,87.44
2023-09-14T23:02:43.398Z,87.25
2023-09-14T23:05:12.756Z,86.95
2023-09-14T23:07:42.058Z,86.92
2023-09-14T23:10:22.783Z,87.31
2023-09-14T23:12:51.132Z,87.24
2023-09-14T23:15:21.669Z,87.14
2023-09-14T23:17:51.035Z,87.13
2023-09-14T23:20:27.644Z,87.11
2023-09-14T23:22:57.824Z,87.05
2023-09-14T23:25:27.379Z,86.78
2023-09-14T23:27:56.173Z,86.76
2023-09-14T23:30:24.681Z,86.80
2023-09-14T23:32:53.593Z,86.77
2023-09-14T23:35:24.172Z,86.48
2023-09-14T23:37:53.829Z,86.34
2023-09-14T23:40:36.126Z,86.45
2023-09-14T23:43:08.150Z,86.67
2023-09-14T23:45:38.191Z,87.10
2023-09-14T23:48:08.844Z,87.23
2023-09-14T23:50:37.094Z,87.08
2023-09-14T23:53:06.406Z,86.89
2023-09-14T23:55:35.281Z,86.63
2023-09-14T23:58:03.929Z,86.38
